Time;durP1;ratioP1;P1;durP2;ratioP2;P2;SDS_P1;SDS_P2;PMS_P1;PMS_P2;Temp;Humidity;BMP_temperature;BMP_pressure;BME280_temperature;BME280_humidity;BME280_pressure;Samples;Min_cycle;Max_cycle;Signal;HPM_P1;HPM_P2
2022/07/31 00:01:12;;;;;;;2.13;1.98;;;24.00;64.40;;;;;;5015741;28;20216;-69
2022/07/31 00:03:38;;;;;;;2.35;2.15;;;24.00;64.30;;;;;;5007011;28;20190;-70
2022/07/31 00:06:04;;;;;;;2.80;1.75;;;24.00;64.30;;;;;;4994404;28;20176;-70
2022/07/31 00:08:30;;;;;;;2.38;2.17;;;24.00;64.30;;;;;;5029626;28;20195;-71
2022/07/31 00:10:56;;;;;;;2.83;2.10;;;24.00;64.40;;;;;;5014475;28;20195;-70
2022/07/31 00:13:22;;;;;;;1.80;1.70;;;24.00;64.30;;;;;;5013705;28;20195;-70
2022/07/31 00:15:48;;;;;;;2.05;1.95;;;24.00;64.30;;;;;;5013873;28;20254;-71
2022/07/31 00:18:14;;;;;;;2.15;1.95;;;24.00;64.40;;;;;;5014075;28;20631;-70
2022/07/31 00:20:40;;;;;;;2.22;2.03;;;24.00;64.30;;;;;;5014284;28;20176;-71
2022/07/31 00:23:05;;;;;;;1.90;1.80;;;23.90;64.30;;;;;;5029958;28;20184;-70
2022/07/31 00:25:31;;;;;;;2.03;1.92;;;23.90;64.20;;;;;;5013835;28;20238;-71
2022/07/31 00:27:58;;;;;;;1.90;1.80;;;23.90;64.30;;;;;;5013792;28;20218;-71
2022/07/31 00:30:23;;;;;;;1.92;1.83;;;24.00;64.40;;;;;;4997626;28;20290;-70
2022/07/31 00:32:49;;;;;;;2.38;1.83;;;23.90;64.30;;;;;;5005171;28;20283;-70
2022/07/31 00:35:15;;;;;;;2.08;1.90;;;24.00;64.40;;;;;;5030330;28;20606;-71
2022/07/31 00:37:43;;;;;;;2.30;2.10;;;24.00;64.40;;;;;;5013523;28;20283;-70
2022/07/31 00:40:14;;;;;;;3.45;2.08;;;24.00;64.40;;;;;;5029991;28;20241;-71
2022/07/31 00:42:41;;;;;;;2.17;2.08;;;23.90;64.30;;;;;;5030029;28;20183;-71
2022/07/31 00:45:09;;;;;;;1.98;1.88;;;23.90;64.30;;;;;;5029596;28;20177;-70
2022/07/31 00:47:35;;;;;;;2.00;1.90;;;23.90;64.30;;;;;;5029632;28;20207;-71
2022/07/31 00:50:03;;;;;;;2.20;2.10;;;23.90;64.40;;;;;;4997398;28;20180;-71
2022/07/31 00:52:28;;;;;;;2.17;2.08;;;23.90;64.40;;;;;;5029547;28;20192;-70
2022/07/31 00:54:54;;;;;;;2.03;1.92;;;23.90;64.30;;;;;;5029262;28;20206;-70
2022/07/31 00:57:20;;;;;;;1.80;1.70;;;23.90;64.30;;;;;;5013119;28;20223;-71
2022/07/31 00:59:46;;;;;;;2.10;2.00;;;23.90;64.30;;;;;;4995407;28;20204;-70
2022/07/31 01:02:12;;;;;;;1.90;1.80;;;23.90;64.30;;;;;;5001796;28;20188;-70
2022/07/31 01:04:38;;;;;;;2.30;2.00;;;23.90;64.30;;;;;;5009519;28;20180;-70
2022/07/31 01:07:04;;;;;;;2.05;1.90;;;23.90;64.30;;;;;;5009760;28;20217;-71
2022/07/31 01:09:30;;;;;;;1.77;1.67;;;23.90;64.40;;;;;;5009768;28;20181;-70
2022/07/31 01:12:17;;;;;;;2.03;1.92;;;23.90;64.30;;;;;;5009809;28;20212;-71
2022/07/31 01:14:51;;;;;;;2.10;2.00;;;23.90;64.30;;;;;;5009308;28;20656;-70
2022/07/31 01:17:22;;;;;;;1.90;1.80;;;23.90;64.30;;;;;;5009473;28;20220;-70
2022/07/31 01:19:50;;;;;;;2.00;1.90;;;23.90;64.40;;;;;;5008590;28;20201;-71
2022/07/31 01:22:40;;;;;;;2.03;1.92;;;23.90;64.40;;;;;;5009736;28;20185;-71
2022/07/31 01:25:28;;;;;;;1.92;1.83;;;23.90;64.40;;;;;;4992594;28;20188;-70
2022/07/31 01:28:36;;;;;;;1.92;1.83;;;23.90;64.40;;;;;;4995289;28;20235;-70
2022/07/31 01:31:22;;;;;;;1.80;1.70;;;23.90;64.30;;;;;;5001303;28;20273;-71
2022/07/31 01:34:13;;;;;;;1.83;1.73;;;23.80;64.30;;;;;;5027006;28;20195;-70
2022/07/31 01:36:55;;;;;;;1.98;1.88;;;23.90;64.40;;;;;;5003356;28;20304;-71
2022/07/31 01:39:22;;;;;;;1.88;1.77;;;23.90;64.40;;;;;;5012445;28;20606;-70
2022/07/31 01:41:51;;;;;;;1.80;1.70;;;23.90;64.40;;;;;;5012582;28;20187;-70
2022/07/31 01:44:19;;;;;;;1.75;1.55;;;23.80;64.30;;;;;;5028514;28;20218;-70
2022/07/31 01:46:47;;;;;;;2.05;1.95;;;23.80;64.20;;;;;;4995911;28;20664;-71
2022/07/31 01:49:17;;;;;;;1.70;1.60;;;23.80;64.20;;;;;;5028882;28;20180;-70
2022/07/31 01:51:46;;;;;;;1.77;1.67;;;23.80;64.20;;;;;;5009339;28;20216;-71
2022/07/31 01:54:17;;;;;;;1.90;1.80;;;23.80;64.20;;;;;;5008857;28;20192;-70
2022/07/31 01:56:46;;;;;;;1.85;1.75;;;23.90;64.40;;;;;;5009075;28;20205;-70
2022/07/31 01:59:13;;;;;;;1.90;1.80;;;23.80;64.20;;;;;;5009066;28;20272;-69
2022/07/31 02:01:51;;;;;;;1.88;1.77;;;23.80;64.30;;;;;;5005258;28;20668;-70
2022/07/31 02:04:20;;;;;;;1.90;1.80;;;23.80;64.30;;;;;;5011538;28;20237;-71
2022/07/31 02:06:49;;;;;;;1.77;1.67;;;23.80;64.30;;;;;;5012430;28;20208;-69
2022/07/31 02:09:18;;;;;;;1.75;1.65;;;23.80;64.40;;;;;;5012019;28;20180;-71
2022/07/31 02:11:45;;;;;;;2.00;1.80;;;23.80;64.30;;;;;;5028418;28;20176;-71
2022/07/31 02:14:13;;;;;;;2.00;1.90;;;23.80;64.30;;;;;;5028221;28;20188;-70
2022/07/31 02:16:40;;;;;;;1.92;1.83;;;23.80;64.30;;;;;;5012128;28;20200;-70
2022/07/31 02:19:14;;;;;;;2.08;1.70;;;23.80;64.30;;;;;;5028517;28;20226;-70
2022/07/31 02:21:41;;;;;;;2.03;1.92;;;23.80;64.30;;;;;;5028600;28;20215;-70
2022/07/31 02:24:08;;;;;;;1.98;1.88;;;23.80;64.30;;;;;;5027833;28;20180;-70
2022/07/31 02:26:36;;;;;;;1.83;1.73;;;23.80;64.30;;;;;;5028226;28;20200;-70
2022/07/31 02:29:04;;;;;;;2.10;2.00;;;23.80;64.30;;;;;;5028247;28;20210;-71
2022/07/31 02:31:33;;;;;;;1.88;1.77;;;23.80;64.30;;;;;;4986698;28;20184;-69
2022/07/31 02:33:59;;;;;;;2.10;2.00;;;23.80;64.30;;;;;;5008313;28;20185;-71
2022/07/31 02:36:28;;;;;;;1.95;1.85;;;23.80;64.30;;;;;;4992116;28;20200;-70
2022/07/31 02:38:57;;;;;;;1.90;1.80;;;23.80;64.30;;;;;;4976032;28;20208;-71
2022/07/31 02:41:24;;;;;;;1.63;1.52;;;23.80;64.40;;;;;;5008522;28;20188;-70
2022/07/31 02:43:51;;;;;;;1.83;1.73;;;23.80;64.30;;;;;;5003977;28;20339;-70
2022/07/31 02:46:22;;;;;;;2.17;1.98;;;23.80;64.30;;;;;;5013981;28;20219;-70
2022/07/31 02:48:50;;;;;;;2.08;1.98;;;23.80;64.30;;;;;;4977503;28;20189;-71
2022/07/31 02:51:18;;;;;;;1.90;1.80;;;23.80;64.30;;;;;;4976312;28;20260;-70
2022/07/31 02:53:44;;;;;;;1.70;1.60;;;23.80;64.30;;;;;;5004267;28;20316;-70
2022/07/31 02:56:11;;;;;;;1.75;1.65;;;23.80;64.30;;;;;;4987974;28;20300;-70
2022/07/31 02:58:40;;;;;;;1.80;1.70;;;23.80;64.30;;;;;;4988621;28;20217;-70
2022/07/31 03:01:07;;;;;;;1.92;1.77;;;23.80;64.30;;;;;;5008650;28;20193;-71
2022/07/31 03:03:36;;;;;;;1.60;1.50;;;23.80;64.30;;;;;;5023728;28;20207;-70
2022/07/31 03:06:02;;;;;;;1.80;1.70;;;23.80;64.30;;;;;;5027862;28;20238;-70
2022/07/31 03:08:27;;;;;;;2.08;1.63;;;23.80;64.30;;;;;;5027685;28;20188;-70
2022/07/31 03:10:56;;;;;;;2.08;1.98;;;23.70;64.20;;;;;;5011803;28;20271;-70
2022/07/31 03:13:29;;;;;;;1.67;1.58;;;23.80;64.30;;;;;;4991717;28;20203;-70
2022/07/31 03:15:57;;;;;;;1.80;1.70;;;23.80;64.30;;;;;;5008193;28;20625;-70
2022/07/31 03:18:25;;;;;;;1.90;1.80;;;23.70;64.20;;;;;;5008111;28;20248;-70
2022/07/31 03:20:53;;;;;;;2.20;2.00;;;23.70;65.00;;;;;;5008030;28;20193;-70
2022/07/31 03:23:24;;;;;;;2.00;1.90;;;23.80;64.30;;;;;;4975122;28;20187;-69
2022/07/31 03:25:57;;;;;;;1.90;1.80;;;23.80;64.40;;;;;;4975893;28;20180;-70
2022/07/31 03:28:23;;;;;;;1.90;1.80;;;23.70;64.30;;;;;;5007950;28;20189;-71
2022/07/31 03:30:54;;;;;;;1.67;1.58;;;23.70;64.20;;;;;;5016040;28;20180;-70
2022/07/31 03:33:21;;;;;;;2.05;1.95;;;23.70;64.20;;;;;;5021344;28;20219;-70
2022/07/31 03:35:48;;;;;;;1.92;1.83;;;23.70;64.20;;;;;;5027610;28;20184;-71
2022/07/31 03:38:14;;;;;;;1.98;1.88;;;23.70;64.20;;;;;;4994773;28;20219;-71
2022/07/31 03:40:45;;;;;;;1.80;1.70;;;23.70;64.30;;;;;;5011757;28;20257;-71
2022/07/31 03:43:13;;;;;;;1.85;1.75;;;23.70;64.30;;;;;;5002527;28;20269;-70
2022/07/31 03:45:42;;;;;;;1.90;1.80;;;23.70;64.20;;;;;;4991955;28;20166;-70
2022/07/31 03:48:08;;;;;;;1.70;1.60;;;23.70;64.20;;;;;;4991543;28;20216;-70
2022/07/31 03:50:36;;;;;;;1.75;1.65;;;23.70;64.20;;;;;;4991773;28;20193;-70
2022/07/31 03:53:05;;;;;;;1.77;1.67;;;23.70;64.20;;;;;;4992104;28;20248;-70
2022/07/31 03:55:35;;;;;;;1.80;1.70;;;23.70;64.20;;;;;;4991110;28;20662;-70
2022/07/31 03:58:06;;;;;;;1.92;1.83;;;23.70;64.20;;;;;;4991487;28;20221;-70
2022/07/31 04:00:33;;;;;;;1.98;1.73;;;23.70;64.20;;;;;;4991443;28;20189;-70
2022/07/31 04:03:07;;;;;;;2.00;1.90;;;23.70;64.20;;;;;;5019290;28;20271;-70
2022/07/31 04:05:51;;;;;;;1.90;1.80;;;23.70;65.00;;;;;;4997223;28;20261;-71
2022/07/31 04:08:17;;;;;;;1.80;1.70;;;23.70;64.30;;;;;;5011367;28;20664;-70
2022/07/31 04:10:46;;;;;;;1.90;1.80;;;23.70;64.20;;;;;;4979015;28;20192;-71
2022/07/31 04:13:15;;;;;;;1.83;1.73;;;23.70;64.30;;;;;;4978431;28;20181;-70
2022/07/31 04:15:41;;;;;;;2.03;1.73;;;23.70;64.30;;;;;;4978400;28;20193;-70
2022/07/31 04:18:07;;;;;;;2.00;1.90;;;23.70;64.20;;;;;;4978131;28;20216;-70
2022/07/31 04:20:37;;;;;;;1.70;1.60;;;23.70;64.30;;;;;;4995617;28;20177;-70
2022/07/31 04:23:03;;;;;;;1.90;1.80;;;23.70;64.20;;;;;;4978328;28;20192;-70
2022/07/31 04:25:48;;;;;;;2.00;1.90;;;23.70;64.20;;;;;;4994499;28;20280;-70
2022/07/31 04:28:28;;;;;;;1.70;1.60;;;23.70;64.30;;;;;;4980576;28;20188;-71
2022/07/31 04:30:54;;;;;;;1.70;1.60;;;23.70;65.00;;;;;;4977977;28;20239;-70
2022/07/31 04:33:20;;;;;;;1.80;1.70;;;23.60;64.10;;;;;;4991183;28;20572;-70
2022/07/31 04:35:46;;;;;;;2.08;1.70;;;23.70;64.30;;;;;;5030380;28;20176;-71
2022/07/31 04:38:15;;;;;;;1.77;1.67;;;23.60;64.20;;;;;;5030095;28;20231;-71
2022/07/31 04:40:42;;;;;;;1.73;1.63;;;23.60;64.20;;;;;;5030363;28;20267;-70
2022/07/31 04:43:09;;;;;;;1.60;1.50;;;23.70;64.30;;;;;;5029793;28;20271;-70
2022/07/31 04:45:35;;;;;;;1.90;1.80;;;23.60;64.10;;;;;;5029752;28;20176;-70
2022/07/31 04:48:02;;;;;;;2.17;1.83;;;23.60;64.20;;;;;;5013391;28;20227;-71
2022/07/31 04:50:28;;;;;;;1.90;1.80;;;23.70;64.30;;;;;;5030057;28;20184;-70
2022/07/31 04:52:56;;;;;;;1.75;1.65;;;23.70;64.30;;;;;;5013497;28;20188;-70
2022/07/31 04:55:26;;;;;;;1.80;1.70;;;23.70;64.40;;;;;;5005095;28;20178;-70
2022/07/31 04:57:52;;;;;;;1.70;1.60;;;23.70;64.30;;;;;;4990359;28;20214;-71
2022/07/31 05:00:17;;;;;;;1.70;1.60;;;23.70;64.30;;;;;;5001593;28;20605;-70
2022/07/31 05:02:44;;;;;;;1.70;1.60;;;23.70;64.30;;;;;;5021290;28;20192;-70
2022/07/31 05:05:09;;;;;;;1.73;1.63;;;23.70;64.30;;;;;;4996488;28;20176;-70
2022/07/31 05:07:41;;;;;;;1.77;1.67;;;23.60;64.20;;;;;;5029588;28;20243;-70
2022/07/31 05:11:21;;;;;;;1.75;1.65;;;23.60;64.20;;;;;;4997893;28;20283;-70
2022/07/31 05:12:58;;;;;;;2.00;1.90;;;23.70;64.40;;;;;;4993462;28;20184;-70
2022/07/31 05:15:23;;;;;;;1.73;1.63;;;23.60;64.30;;;;;;5009572;28;20284;-71
2022/07/31 05:17:50;;;;;;;1.83;1.73;;;23.60;64.40;;;;;;4976966;28;20408;-70
2022/07/31 05:20:46;;;;;;;1.80;1.70;;;23.60;64.40;;;;;;4943169;28;20191;-70
2022/07/31 05:23:34;;;;;;;1.85;1.75;;;23.60;64.40;;;;;;5010481;28;20760;-69
2022/07/31 05:26:14;;;;;;;2.03;1.92;;;23.60;64.30;;;;;;4986774;28;20208;-70
2022/07/31 05:28:41;;;;;;;1.75;1.65;;;23.60;64.20;;;;;;4981458;28;20213;-70
2022/07/31 05:31:08;;;;;;;1.77;1.67;;;23.60;64.30;;;;;;5017394;28;20643;-70
2022/07/31 05:33:35;;;;;;;1.63;1.52;;;23.60;64.30;;;;;;5006218;28;20272;-70
2022/07/31 05:36:02;;;;;;;1.90;1.80;;;23.60;64.30;;;;;;4997795;28;20190;-69
2022/07/31 05:38:29;;;;;;;1.73;1.60;;;23.60;64.40;;;;;;4985720;28;20213;-69
2022/07/31 05:41:16;;;;;;;1.63;1.52;;;23.60;64.40;;;;;;4985945;28;20606;-70
2022/07/31 05:44:00;;;;;;;1.83;1.73;;;23.60;64.60;;;;;;4992983;28;20585;-70
2022/07/31 05:46:34;;;;;;;2.10;1.90;;;23.60;64.60;;;;;;4993711;28;20359;-71
2022/07/31 05:49:00;;;;;;;1.70;1.60;;;23.60;64.70;;;;;;5000319;28;20657;-70
2022/07/31 05:51:26;;;;;;;1.70;1.60;;;23.60;64.70;;;;;;5008907;28;20239;-70
2022/07/31 05:53:51;;;;;;;1.80;1.70;;;23.60;64.70;;;;;;5008355;28;20597;-70
2022/07/31 05:56:37;;;;;;;1.83;1.73;;;23.60;64.70;;;;;;4982089;28;20223;-70
2022/07/31 05:59:03;;;;;;;1.80;1.70;;;23.60;64.70;;;;;;4989021;28;20213;-70
2022/07/31 06:01:30;;;;;;;1.60;1.50;;;23.60;64.70;;;;;;5000582;28;20185;-70
2022/07/31 06:03:55;;;;;;;1.80;1.70;;;23.60;64.70;;;;;;5011648;28;20268;-70
2022/07/31 06:06:30;;;;;;;1.98;1.88;;;23.60;64.70;;;;;;5027775;28;20206;-71
2022/07/31 06:08:56;;;;;;;1.80;1.70;;;23.60;64.70;;;;;;5028557;28;20192;-70
2022/07/31 06:11:22;;;;;;;1.70;1.60;;;23.60;64.70;;;;;;5028280;28;20206;-70
2022/07/31 06:13:47;;;;;;;1.60;1.50;;;23.60;64.70;;;;;;5010620;28;20239;-70
2022/07/31 06:16:19;;;;;;;1.63;1.48;;;23.60;64.70;;;;;;5006929;28;20657;-70
2022/07/31 06:18:45;;;;;;;1.80;1.70;;;23.60;64.70;;;;;;4988930;28;20237;-70
2022/07/31 06:21:11;;;;;;;1.80;1.70;;;23.60;64.70;;;;;;4972593;28;20188;-70
2022/07/31 06:23:37;;;;;;;1.70;1.60;;;23.60;64.60;;;;;;5019323;28;20181;-69
2022/07/31 06:26:17;;;;;;;1.50;1.40;;;23.60;64.70;;;;;;4996695;28;20204;-70
2022/07/31 06:28:43;;;;;;;1.65;1.55;;;23.60;64.50;;;;;;4990310;28;20276;-70
2022/07/31 06:31:17;;;;;;;1.90;1.80;;;23.60;64.40;;;;;;5001258;28;20255;-70
2022/07/31 06:33:43;;;;;;;1.80;1.70;;;23.60;64.40;;;;;;5007413;28;20189;-69
2022/07/31 06:36:09;;;;;;;1.50;1.40;;;23.60;65.10;;;;;;4991939;28;20212;-70
2022/07/31 06:38:37;;;;;;;1.77;1.67;;;23.60;64.40;;;;;;5013732;28;20212;-70
2022/07/31 06:41:47;;;;;;;1.58;1.48;;;23.60;64.30;;;;;;4970454;28;20186;-71
2022/07/31 06:44:31;;;;;;;1.63;1.52;;;23.60;64.30;;;;;;4994887;28;20208;-70
2022/07/31 06:47:17;;;;;;;1.58;1.48;;;23.60;64.40;;;;;;4991787;28;20750;-71
2022/07/31 06:49:50;;;;;;;1.80;1.70;;;23.60;64.30;;;;;;5007616;28;20187;-71
2022/07/31 06:52:16;;;;;;;1.50;1.40;;;23.60;64.20;;;;;;5008481;28;20196;-70
2022/07/31 06:54:43;;;;;;;1.80;1.70;;;23.60;64.20;;;;;;5007749;28;20641;-70
2022/07/31 06:57:11;;;;;;;2.05;1.40;;;23.60;64.00;;;;;;5000354;28;20307;-70
2022/07/31 06:59:37;;;;;;;1.50;1.38;;;23.70;64.00;;;;;;4990501;28;20192;-71
2022/07/31 07:02:04;;;;;;;1.60;1.50;;;23.70;64.10;;;;;;5019390;28;20168;-71
2022/07/31 07:04:30;;;;;;;1.70;1.60;;;23.70;64.10;;;;;;5027245;28;20188;-69
2022/07/31 07:06:57;;;;;;;1.65;1.55;;;23.60;63.90;;;;;;5011346;28;20203;-70
2022/07/31 07:09:23;;;;;;;1.60;1.50;;;23.70;64.00;;;;;;5027740;28;20207;-70
2022/07/31 07:11:49;;;;;;;1.48;1.38;;;23.70;63.90;;;;;;5027929;28;20188;-70
2022/07/31 07:14:15;;;;;;;1.65;1.55;;;23.70;63.90;;;;;;4987214;28;20190;-70
2022/07/31 07:16:41;;;;;;;1.45;1.38;;;23.70;64.00;;;;;;4985665;28;20216;-71
2022/07/31 07:19:07;;;;;;;1.58;1.48;;;23.70;63.90;;;;;;4992536;28;20308;-70
2022/07/31 07:21:33;;;;;;;1.63;1.52;;;23.70;63.80;;;;;;4997692;28;20272;-70
2022/07/31 07:23:59;;;;;;;1.67;1.58;;;23.70;64.50;;;;;;4991715;28;20194;-70
2022/07/31 07:26:34;;;;;;;1.60;1.50;;;23.70;63.80;;;;;;4992040;28;20200;-70
2022/07/31 07:29:02;;;;;;;2.13;1.40;;;23.80;63.80;;;;;;4992363;28;20649;-70
2022/07/31 07:31:29;;;;;;;2.00;1.35;;;23.80;63.80;;;;;;5015656;28;20189;-70
2022/07/31 07:33:56;;;;;;;1.60;1.50;;;23.80;63.80;;;;;;5013767;28;20188;-69
2022/07/31 07:36:24;;;;;;;1.50;1.40;;;23.80;63.60;;;;;;5023471;28;20725;-71
2022/07/31 07:38:53;;;;;;;1.70;1.48;;;23.80;63.50;;;;;;5005641;28;20208;-70
2022/07/31 07:41:19;;;;;;;1.60;1.50;;;23.80;63.50;;;;;;5011412;28;20197;-70
2022/07/31 07:43:46;;;;;;;1.98;1.60;;;23.80;63.40;;;;;;5025798;28;20284;-69
2022/07/31 07:46:12;;;;;;;1.90;1.70;;;23.80;63.50;;;;;;5011099;28;20201;-70
2022/07/31 07:48:41;;;;;;;1.63;1.52;;;23.80;63.50;;;;;;5002384;28;20189;-69
2022/07/31 07:51:14;;;;;;;1.70;1.60;;;23.80;64.30;;;;;;5007323;28;20693;-70
2022/07/31 07:54:04;;;;;;;1.10;1.10;;;23.80;63.50;;;;;;5013911;28;20615;-70
2022/07/31 07:56:30;;;;;;;1.60;1.50;;;23.80;63.60;;;;;;5010990;28;20217;-70
2022/07/31 07:59:31;;;;;;;1.70;1.60;;;23.80;63.60;;;;;;5006698;28;20255;-70
2022/07/31 08:02:20;;;;;;;2.75;1.67;;;23.80;63.50;;;;;;5015121;28;20196;-69
2022/07/31 08:04:47;;;;;;;1.73;1.63;;;23.80;63.50;;;;;;5013974;28;20225;-70
2022/07/31 08:07:13;;;;;;;1.50;1.40;;;23.80;63.50;;;;;;5014253;28;20212;-70
2022/07/31 08:09:39;;;;;;;1.48;1.38;;;23.80;63.50;;;;;;4997969;28;20191;-70
2022/07/31 08:12:24;;;;;;;1.48;1.38;;;23.80;63.40;;;;;;4975433;28;20185;-71
2022/07/31 08:15:25;;;;;;;1.98;1.45;;;23.80;63.40;;;;;;4986393;28;20280;-70
2022/07/31 08:18:07;;;;;;;2.78;1.42;;;23.80;63.60;;;;;;4991273;28;20217;-69
2022/07/31 08:20:36;;;;;;;1.67;1.58;;;23.80;63.60;;;;;;4991311;28;20264;-70
2022/07/31 08:23:01;;;;;;;1.40;1.30;;;23.80;63.70;;;;;;4991192;28;20188;-70
2022/07/31 08:25:28;;;;;;;1.60;1.50;;;23.80;63.60;;;;;;4991031;28;20268;-70
2022/07/31 08:27:55;;;;;;;1.67;1.58;;;23.80;63.50;;;;;;4990433;28;20205;-69
2022/07/31 08:30:21;;;;;;;1.92;1.48;;;23.80;63.40;;;;;;5000690;28;20184;-70
2022/07/31 08:32:47;;;;;;;1.40;1.30;;;23.80;63.20;;;;;;5021869;28;20188;-71
2022/07/31 08:35:24;;;;;;;1.30;1.17;;;23.80;63.20;;;;;;5013707;28;20209;-70
2022/07/31 08:37:51;;;;;;;1.50;1.40;;;23.80;63.10;;;;;;4996971;28;20211;-70
2022/07/31 08:40:19;;;;;;;1.65;1.45;;;23.80;63.00;;;;;;5030194;28;20180;-70
2022/07/31 08:42:46;;;;;;;1.50;1.40;;;23.80;63.00;;;;;;5030419;28;20183;-70
2022/07/31 08:45:13;;;;;;;1.80;1.70;;;23.90;62.90;;;;;;5013443;28;20180;-69
2022/07/31 08:47:48;;;;;;;2.05;1.80;;;23.90;63.10;;;;;;5030034;28;20211;-69
2022/07/31 08:50:21;;;;;;;2.00;1.20;;;23.80;62.90;;;;;;5030142;28;20211;-70
2022/07/31 08:52:49;;;;;;;1.33;1.23;;;23.80;62.90;;;;;;4997655;28;20215;-69
2022/07/31 08:55:25;;;;;;;1.85;1.50;;;23.90;62.90;;;;;;5010061;28;20203;-69
2022/07/31 08:57:51;;;;;;;1.60;1.50;;;23.90;62.90;;;;;;5009987;28;20283;-70
2022/07/31 09:00:18;;;;;;;1.45;1.35;;;23.90;62.90;;;;;;4993624;28;20262;-69
2022/07/31 09:02:48;;;;;;;1.50;1.40;;;23.90;62.80;;;;;;5018829;28;20577;-71
2022/07/31 09:05:26;;;;;;;1.65;1.55;;;23.80;62.70;;;;;;5015313;28;20172;-72
2022/07/31 09:07:54;;;;;;;1.30;1.20;;;23.90;62.70;;;;;;5011580;28;20300;-72
2022/07/31 09:10:28;;;;;;;1.35;1.25;;;23.90;62.60;;;;;;5008748;28;20281;-73
2022/07/31 09:12:58;;;;;;;1.40;1.30;;;23.90;62.70;;;;;;5004573;28;20211;-73
2022/07/31 09:15:30;;;;;;;1.50;1.40;;;23.90;62.80;;;;;;4995223;28;20180;-72
2022/07/31 09:18:01;;;;;;;1.45;1.35;;;23.90;62.70;;;;;;4994210;28;20235;-72
2022/07/31 09:20:31;;;;;;;1.67;1.58;;;23.90;62.60;;;;;;5001034;28;20185;-73
2022/07/31 09:23:08;;;;;;;1.98;1.40;;;23.90;62.40;;;;;;4990450;28;20184;-73
2022/07/31 09:25:37;;;;;;;1.30;1.20;;;23.90;62.40;;;;;;4996016;28;20178;-73
2022/07/31 09:28:06;;;;;;;1.67;1.52;;;23.90;62.30;;;;;;4989443;28;20223;-72
2022/07/31 09:30:33;;;;;;;1.35;1.25;;;23.90;62.50;;;;;;4997268;28;20281;-73
2022/07/31 09:33:15;;;;;;;1.40;1.30;;;23.90;62.40;;;;;;5005386;28;20216;-73
2022/07/31 09:36:07;;;;;;;1.40;1.30;;;23.90;63.30;;;;;;4980127;28;20185;-72
2022/07/31 09:38:41;;;;;;;1.20;1.20;;;23.90;62.60;;;;;;4990377;28;20221;-73
2022/07/31 09:41:50;;;;;;;1.23;1.20;;;23.90;62.50;;;;;;4983538;28;20252;-73
2022/07/31 09:44:50;;;;;;;1.83;1.50;;;23.90;62.40;;;;;;5008873;28;20192;-73
2022/07/31 09:47:30;;;;;;;1.60;1.50;;;24.00;62.50;;;;;;4973539;28;20214;-73
2022/07/31 09:50:03;;;;;;;2.10;1.42;;;23.90;62.50;;;;;;4995396;28;20173;-73
2022/07/31 09:52:31;;;;;;;1.85;1.70;;;24.00;62.60;;;;;;5016882;28;20197;-72
2022/07/31 09:55:03;;;;;;;1.48;1.38;;;23.90;62.50;;;;;;4983044;28;20189;-73
2022/07/31 09:57:40;;;;;;;2.17;1.50;;;24.00;62.60;;;;;;4991370;28;20598;-74
2022/07/31 10:00:10;;;;;;;1.75;1.42;;;24.00;62.60;;;;;;5005802;28;20204;-70
2022/07/31 10:02:48;;;;;;;1.50;1.40;;;24.00;62.70;;;;;;5013630;28;20200;-70
2022/07/31 10:05:16;;;;;;;2.17;1.52;;;24.00;62.50;;;;;;5005238;28;20188;-70
2022/07/31 10:07:45;;;;;;;1.60;1.50;;;24.00;62.70;;;;;;5015714;28;20197;-70
2022/07/31 10:10:17;;;;;;;1.67;1.40;;;24.00;62.60;;;;;;4988286;28;20185;-70
2022/07/31 10:13:04;;;;;;;1.60;1.42;;;24.00;62.70;;;;;;4979980;28;20731;-69
2022/07/31 10:15:32;;;;;;;1.48;1.38;;;24.00;62.70;;;;;;4996960;28;20188;-69
2022/07/31 10:18:38;;;;;;;1.60;1.50;;;24.00;62.70;;;;;;4965695;28;20721;-69
2022/07/31 10:21:34;;;;;;;2.35;1.30;;;24.00;62.80;;;;;;4978975;28;20669;-69
2022/07/31 10:24:11;;;;;;;1.40;1.30;;;24.00;62.70;;;;;;4972201;28;20209;-70
2022/07/31 10:26:39;;;;;;;1.23;1.20;;;24.00;62.60;;;;;;4972921;28;20209;-69
2022/07/31 10:29:05;;;;;;;1.40;1.30;;;24.00;62.80;;;;;;4989364;28;20670;-69
2022/07/31 10:31:32;;;;;;;1.38;1.30;;;24.00;62.80;;;;;;5001306;28;20195;-68
2022/07/31 10:33:58;;;;;;;1.63;1.52;;;24.00;62.80;;;;;;5027207;28;20184;-68
2022/07/31 10:37:01;;;;;;;1.40;1.30;;;24.00;62.90;;;;;;5024335;28;20258;-68
2022/07/31 10:40:01;;;;;;;1.40;1.30;;;24.00;62.90;;;;;;5012001;28;20200;-69
2022/07/31 10:43:01;;;;;;;1.73;1.20;;;24.00;63.00;;;;;;4992442;28;20181;-69
2022/07/31 10:45:30;;;;;;;1.30;1.20;;;24.00;62.90;;;;;;4987771;28;20185;-68
2022/07/31 10:48:20;;;;;;;1.55;1.30;;;24.00;63.00;;;;;;4990771;28;20192;-69
2022/07/31 10:51:09;;;;;;;1.77;1.60;;;24.10;63.20;;;;;;5007965;28;20235;-68
2022/07/31 10:54:00;;;;;;;1.50;1.40;;;24.00;63.10;;;;;;5002858;28;20201;-69
2022/07/31 10:56:47;;;;;;;1.60;1.50;;;24.00;63.00;;;;;;5005384;28;20288;-69
2022/07/31 10:59:31;;;;;;;1.90;1.35;;;24.10;63.10;;;;;;5005439;28;20635;-69
2022/07/31 11:02:32;;;;;;;1.48;1.38;;;24.10;63.10;;;;;;4994136;28;20184;-69
2022/07/31 11:05:27;;;;;;;1.48;1.38;;;24.10;63.10;;;;;;4996753;28;20190;-69
2022/07/31 11:08:13;;;;;;;1.50;1.40;;;24.00;63.00;;;;;;4975560;28;20276;-69
2022/07/31 11:10:54;;;;;;;1.60;1.50;;;24.10;63.10;;;;;;4988558;28;20235;-69
2022/07/31 11:13:54;;;;;;;1.55;1.45;;;24.10;63.00;;;;;;4988805;28;20260;-69
2022/07/31 11:16:54;;;;;;;1.73;1.52;;;24.10;63.20;;;;;;5017840;28;20208;-69
2022/07/31 11:19:41;;;;;;;2.22;1.02;;;24.10;63.20;;;;;;5005961;28;20243;-69
2022/07/31 11:22:14;;;;;;;1.23;1.13;;;24.00;63.20;;;;;;5000385;28;20181;-69
2022/07/31 11:24:40;;;;;;;1.60;1.50;;;24.10;63.10;;;;;;5007317;28;20191;-69
2022/07/31 11:27:06;;;;;;;2.47;1.52;;;24.10;63.00;;;;;;5024378;28;20200;-69
2022/07/31 11:29:38;;;;;;;1.83;1.40;;;24.10;63.10;;;;;;5018723;28;20193;-70
2022/07/31 11:32:04;;;;;;;1.60;1.50;;;24.10;63.00;;;;;;5005070;28;20184;-69
2022/07/31 11:34:31;;;;;;;1.60;1.40;;;24.10;63.00;;;;;;4994070;28;20227;-69
2022/07/31 11:36:57;;;;;;;2.42;1.60;;;24.10;63.10;;;;;;5008126;28;20201;-69
2022/07/31 11:39:26;;;;;;;2.35;1.35;;;24.10;63.00;;;;;;5008389;28;20233;-69
2022/07/31 11:41:53;;;;;;;2.55;1.48;;;24.10;63.10;;;;;;5007857;28;20208;-70
2022/07/31 11:44:21;;;;;;;3.13;2.10;;;24.20;63.50;;;;;;5007313;28;20192;-70
2022/07/31 11:46:50;;;;;;;7.32;1.90;;;24.30;63.90;;;;;;5007372;28;20204;-70
2022/07/31 11:49:21;;;;;;;3.97;1.90;;;24.40;64.00;;;;;;4991457;28;20193;-70
2022/07/31 11:51:48;;;;;;;4.85;1.85;;;24.40;64.00;;;;;;5004732;28;20213;-70
2022/07/31 11:54:24;;;;;;;2.97;1.58;;;24.40;64.00;;;;;;4993432;28;20190;-70
2022/07/31 11:56:54;;;;;;;1.92;1.60;;;24.40;63.80;;;;;;4995622;28;20240;-70
2022/07/31 11:59:33;;;;;;;2.70;1.80;;;24.40;63.60;;;;;;4991136;28;20217;-70
2022/07/31 12:02:04;;;;;;;5.57;1.88;;;24.40;63.70;;;;;;4992575;28;20186;-70
2022/07/31 12:04:31;;;;;;;5.25;1.73;;;24.50;63.70;;;;;;4974183;28;20178;-70
2022/07/31 12:06:58;;;;;;;5.15;2.05;;;24.50;63.60;;;;;;4975494;28;20237;-69
2022/07/31 12:09:24;;;;;;;2.80;1.67;;;24.50;63.50;;;;;;4975558;28;20186;-69
2022/07/31 12:11:51;;;;;;;3.13;1.55;;;24.50;63.50;;;;;;4985980;28;20228;-70
2022/07/31 12:14:38;;;;;;;2.90;1.63;;;24.50;63.50;;;;;;4989340;28;20189;-69
2022/07/31 12:17:06;;;;;;;3.28;1.80;;;24.50;63.30;;;;;;5008654;28;20211;-69
2022/07/31 12:19:35;;;;;;;4.20;1.80;;;24.60;63.70;;;;;;4975264;28;20213;-70
2022/07/31 12:22:21;;;;;;;2.97;1.63;;;24.50;63.40;;;;;;4975345;28;20633;-69
2022/07/31 12:24:59;;;;;;;3.45;1.70;;;24.50;63.20;;;;;;4958267;28;20193;-70
2022/07/31 12:27:25;;;;;;;3.08;1.70;;;24.50;63.40;;;;;;4975452;28;20209;-70
2022/07/31 12:29:52;;;;;;;3.08;1.65;;;24.50;64.00;;;;;;4996050;28;20184;-70
2022/07/31 12:32:25;;;;;;;4.32;1.80;;;24.60;63.30;;;;;;4997888;28;20184;-70
2022/07/31 12:35:03;;;;;;;2.97;1.70;;;24.60;63.30;;;;;;5030153;28;20287;-70
2022/07/31 12:37:29;;;;;;;4.78;2.00;;;24.60;63.00;;;;;;5013607;28;20219;-69
2022/07/31 12:39:56;;;;;;;2.63;1.80;;;24.60;62.90;;;;;;5014202;28;20192;-70
2022/07/31 12:42:36;;;;;;;4.03;1.88;;;24.60;62.80;;;;;;5005897;28;20194;-69
2022/07/31 12:45:05;;;;;;;2.03;1.60;;;24.60;62.70;;;;;;4995561;28;20243;-70
2022/07/31 12:47:33;;;;;;;4.07;1.60;;;24.60;62.60;;;;;;5010245;28;20267;-70
2022/07/31 12:50:00;;;;;;;2.08;1.65;;;24.60;62.70;;;;;;4997852;28;20185;-69
2022/07/31 12:52:29;;;;;;;2.35;1.70;;;24.60;62.70;;;;;;5013303;28;20236;-70
2022/07/31 12:54:58;;;;;;;1.95;1.73;;;24.60;63.40;;;;;;4973573;28;20248;-70
2022/07/31 12:57:24;;;;;;;2.22;1.90;;;24.60;62.70;;;;;;4974249;28;20244;-69
2022/07/31 12:59:50;;;;;;;2.22;1.63;;;24.60;62.70;;;;;;5000566;28;20192;-69
2022/07/31 13:02:16;;;;;;;2.33;1.60;;;24.60;62.60;;;;;;5007600;28;20188;-70
2022/07/31 13:04:42;;;;;;;3.50;1.80;;;24.60;62.60;;;;;;5029014;28;20180;-69
2022/07/31 13:07:08;;;;;;;2.53;1.80;;;24.60;62.60;;;;;;4988770;28;20204;-69
2022/07/31 13:09:34;;;;;;;3.90;1.92;;;24.60;62.60;;;;;;5005502;28;20200;-69
2022/07/31 13:12:04;;;;;;;2.15;1.67;;;24.60;62.40;;;;;;4975542;28;20277;-70